createdAt,value
2018-06-09T00:00:52.541Z,14.33
2018-06-09T00:03:20.681Z,11.83
2018-06-09T00:05:48.838Z,12.60
2018-06-09T00:08:16.999Z,10.77
2018-06-09T00:10:45.121Z,12.20
2018-06-09T00:13:13.259Z,11.07
2018-06-09T00:15:41.386Z,10.63
2018-06-09T00:18:09.521Z,10.83
2018-06-09T00:20:38.255Z,9.63
2018-06-09T00:23:06.396Z,9.30
2018-06-09T00:25:34.545Z,9.40
2018-06-09T00:28:02.909Z,9.23
2018-06-09T00:30:31.053Z,8.63
2018-06-09T00:32:59.173Z,8.50
2018-06-09T00:35:27.317Z,8.80
2018-06-09T00:37:55.420Z,9.20
2018-06-09T00:40:23.542Z,10.30
2018-06-09T00:42:51.696Z,9.13
2018-06-09T00:45:19.818Z,9.23
2018-06-09T00:47:47.930Z,9.33
2018-06-09T00:50:16.083Z,8.70
2018-06-09T00:52:44.245Z,8.80
2018-06-09T00:55:12.380Z,8.90
2018-06-09T00:57:40.512Z,8.60
2018-06-09T01:00:08.648Z,7.70
2018-06-09T01:02:36.901Z,7.07
2018-06-09T01:05:05.030Z,7.67
2018-06-09T01:07:33.189Z,7.30
2018-06-09T01:10:01.316Z,7.10
2018-06-09T01:12:29.496Z,7.73
2018-06-09T01:14:57.649Z,7.10
2018-06-09T01:17:25.846Z,7.33
2018-06-09T01:19:53.982Z,6.90
2018-06-09T01:22:23.160Z,7.37
2018-06-09T01:24:51.268Z,7.90
2018-06-09T01:27:19.405Z,7.23
2018-06-09T01:29:47.534Z,7.87
2018-06-09T01:32:15.678Z,7.80
2018-06-09T01:34:43.820Z,6.80
2018-06-09T01:37:11.978Z,6.90
2018-06-09T01:39:40.085Z,7.73
2018-06-09T01:42:08.243Z,7.90
2018-06-09T01:44:36.160Z,6.70
2018-06-09T01:47:04.357Z,7.80
2018-06-09T01:49:32.506Z,7.37
2018-06-09T01:52:00.640Z,8.10
2018-06-09T01:54:29.476Z,7.73
2018-06-09T01:56:57.597Z,7.67
2018-06-09T01:59:25.778Z,9.77
2018-06-09T02:01:53.917Z,7.83
2018-06-09T02:04:22.050Z,8.27
2018-06-09T02:06:50.181Z,7.60
2018-06-09T02:09:18.328Z,8.60
2018-06-09T02:11:46.476Z,8.60
2018-06-09T02:14:14.710Z,8.43
2018-06-09T02:16:42.852Z,7.87
2018-06-09T02:19:11.011Z,7.70
2018-06-09T02:21:39.169Z,7.80
2018-06-09T02:24:07.299Z,7.70
2018-06-09T02:26:35.440Z,8.13
2018-06-09T02:29:03.553Z,7.93
2018-06-09T02:31:31.460Z,7.70
2018-06-09T02:33:59.589Z,8.13
2018-06-09T02:36:27.710Z,7.67
2018-06-09T02:38:55.872Z,7.53
2018-06-09T02:41:24.002Z,7.27
2018-06-09T02:43:52.143Z,8.10
2018-06-09T02:46:20.280Z,7.63
2018-06-09T02:48:48.435Z,7.67
2018-06-09T02:51:16.580Z,7.60
2018-06-09T02:53:44.720Z,7.50
2018-06-09T02:56:12.854Z,7.80
2018-06-09T02:58:41.000Z,7.73
2018-06-09T03:01:09.122Z,8.33
2018-06-09T03:03:37.245Z,7.53
2018-06-09T03:06:05.361Z,7.37
2018-06-09T03:08:33.517Z,7.30
2018-06-09T03:11:01.673Z,7.80
2018-06-09T03:13:29.840Z,7.93
2018-06-09T03:15:57.971Z,7.97
2018-06-09T03:18:26.116Z,7.80
2018-06-09T03:20:54.261Z,7.70
2018-06-09T03:23:22.994Z,7.17
2018-06-09T03:25:51.141Z,7.50
2018-06-09T03:28:19.320Z,7.17
2018-06-09T03:30:47.446Z,7.57
2018-06-09T03:33:15.575Z,7.53
2018-06-09T03:35:43.716Z,6.70
2018-06-09T03:38:11.848Z,7.43
2018-06-09T03:40:40.005Z,7.40
2018-06-09T03:43:08.185Z,7.50
2018-06-09T03:45:36.262Z,7.07
2018-06-09T03:48:04.808Z,7.00
2018-06-09T03:50:33.006Z,6.80
2018-06-09T03:53:01.116Z,6.97
2018-06-09T03:55:29.258Z,8.30
2018-06-09T03:57:57.421Z,8.10
2018-06-09T04:00:25.549Z,6.80
2018-06-09T04:02:53.717Z,8.20
2018-06-09T04:05:21.841Z,7.23
2018-06-09T04:07:49.966Z,7.63
2018-06-09T04:10:18.083Z,6.90
2018-06-09T04:12:46.220Z,6.90
2018-06-09T04:15:14.354Z,7.03
2018-06-09T04:17:42.505Z,6.73
2018-06-09T04:20:10.653Z,7.80
2018-06-09T04:22:38.777Z,7.03
2018-06-09T04:25:06.944Z,7.17
2018-06-09T04:27:35.103Z,6.67
2018-06-09T04:30:03.281Z,7.60
2018-06-09T04:32:31.428Z,6.50
2018-06-09T04:34:59.573Z,7.70
2018-06-09T04:37:27.717Z,7.57
2018-06-09T04:39:55.981Z,6.27
2018-06-09T04:42:24.129Z,7.13
2018-06-09T04:44:52.289Z,7.47
2018-06-09T04:47:20.546Z,7.30
2018-06-09T04:49:48.708Z,7.80
2018-06-09T04:52:16.853Z,7.00
2018-06-09T04:54:45.039Z,6.63
2018-06-09T04:57:13.196Z,7.37
2018-06-09T04:59:41.320Z,7.50
2018-06-09T05:02:09.457Z,7.40
2018-06-09T05:04:37.612Z,8.53
2018-06-09T05:07:05.753Z,7.97
2018-06-09T05:09:33.928Z,8.53
2018-06-09T05:12:02.106Z,8.70
2018-06-09T05:14:30.272Z,8.03
2018-06-09T05:16:58.417Z,8.03
2018-06-09T05:19:26.585Z,7.97
2018-06-09T05:21:54.736Z,8.03
2018-06-09T05:24:22.865Z,8.80
2018-06-09T05:26:51.049Z,8.40
2018-06-09T05:29:19.204Z,8.70
2018-06-09T05:31:47.365Z,7.60
2018-06-09T05:34:15.563Z,7.93
2018-06-09T05:36:43.692Z,7.70
2018-06-09T05:39:11.830Z,8.50
2018-06-09T05:41:39.960Z,8.47
2018-06-09T05:44:08.108Z,8.93
2018-06-09T05:46:36.269Z,8.50
2018-06-09T05:49:04.468Z,8.30
2018-06-09T05:51:33.720Z,8.07
2018-06-09T05:54:01.886Z,8.07
2018-06-09T05:56:30.070Z,8.20
2018-06-09T05:58:58.245Z,7.70
2018-06-09T06:01:26.381Z,8.63
2018-06-09T06:03:54.588Z,8.00
2018-06-09T06:06:22.688Z,8.00
2018-06-09T06:08:50.869Z,8.07
2018-06-09T06:11:18.998Z,7.37
2018-06-09T06:13:47.184Z,7.90
2018-06-09T06:16:15.372Z,7.50
2018-06-09T06:18:43.562Z,7.33
2018-06-09T06:21:11.428Z,7.80
2018-06-09T06:23:39.566Z,7.10
2018-06-09T06:26:07.510Z,7.83
2018-06-09T06:28:35.652Z,6.93
2018-06-09T06:31:03.820Z,6.77
2018-06-09T06:33:31.968Z,7.13
2018-06-09T06:36:00.154Z,7.90
2018-06-09T06:38:28.281Z,7.23
2018-06-09T06:40:56.428Z,6.93
2018-06-09T06:43:25.382Z,7.50
2018-06-09T06:45:53.580Z,6.97
2018-06-09T06:48:21.736Z,7.60
2018-06-09T06:50:49.886Z,7.53
2018-06-09T06:53:18.043Z,7.00
2018-06-09T06:55:46.210Z,7.27
2018-06-09T06:58:14.370Z,7.20
2018-06-09T07:00:42.537Z,7.33
2018-06-09T07:03:10.697Z,6.73
2018-06-09T07:05:38.862Z,7.60
2018-06-09T07:08:10.056Z,7.87
2018-06-09T07:10:38.186Z,8.27
2018-06-09T07:13:06.316Z,6.90
2018-06-09T07:15:34.480Z,8.20
2018-06-09T07:18:02.632Z,7.90
2018-06-09T07:20:30.780Z,7.70
2018-06-09T07:22:59.920Z,8.40
2018-06-09T07:25:28.109Z,7.20
2018-06-09T07:28:09.723Z,7.70
2018-06-09T07:30:37.861Z,7.27
2018-06-09T07:33:06.048Z,8.50
2018-06-09T07:35:34.186Z,7.80
2018-06-09T07:38:02.346Z,7.60
2018-06-09T07:40:30.500Z,7.97
2018-06-09T07:42:58.644Z,7.87
2018-06-09T07:45:26.790Z,7.57
2018-06-09T07:47:55.493Z,8.13
2018-06-09T07:50:23.661Z,7.90
2018-06-09T07:52:51.798Z,7.63
2018-06-09T07:55:19.917Z,7.27
2018-06-09T07:57:48.022Z,8.17
2018-06-09T08:00:16.160Z,7.20
2018-06-09T08:02:44.084Z,7.93
2018-06-09T08:05:12.282Z,8.03
2018-06-09T08:07:40.430Z,7.87
2018-06-09T08:10:08.589Z,6.80
2018-06-09T08:12:36.768Z,8.10
2018-06-09T08:15:04.958Z,7.43
2018-06-09T08:17:33.091Z,7.97
2018-06-09T08:20:01.246Z,9.20
2018-06-09T08:22:29.392Z,9.40
2018-06-09T08:24:57.502Z,8.60
2018-06-09T08:27:25.649Z,9.03
2018-06-09T08:29:53.759Z,8.80
2018-06-09T08:32:22.249Z,9.20
2018-06-09T08:34:50.392Z,8.93
2018-06-09T08:37:18.537Z,8.80
2018-06-09T08:39:46.670Z,10.30
2018-06-09T08:42:14.790Z,9.30
2018-06-09T08:44:42.901Z,8.70
2018-06-09T08:47:11.016Z,8.50
2018-06-09T08:49:39.131Z,8.83
2018-06-09T08:52:07.268Z,8.43
2018-06-09T08:54:35.415Z,8.97
2018-06-09T08:57:03.564Z,9.33
2018-06-09T08:59:31.688Z,8.83
2018-06-09T09:01:59.813Z,9.00
2018-06-09T09:04:27.923Z,8.83
2018-06-09T09:06:56.040Z,9.83
2018-06-09T09:09:29.330Z,9.43
2018-06-09T09:11:59.425Z,9.30
2018-06-09T09:14:27.585Z,10.20
2018-06-09T09:16:55.709Z,9.57
2018-06-09T09:19:23.843Z,10.10
2018-06-09T09:21:51.973Z,12.27
2018-06-09T09:24:20.094Z,12.63
2018-06-09T09:26:48.241Z,13.37
2018-06-09T09:29:16.377Z,11.60
2018-06-09T09:31:44.536Z,12.90
2018-06-09T09:34:12.680Z,12.73
2018-06-09T09:36:40.801Z,12.97
2018-06-09T09:39:09.193Z,12.73
2018-06-09T09:41:37.361Z,13.33
2018-06-09T09:44:05.304Z,11.20
2018-06-09T09:46:33.446Z,11.73
2018-06-09T09:49:01.582Z,12.30
2018-06-09T09:51:29.723Z,12.60
2018-06-09T09:53:57.905Z,11.87
2018-06-09T09:56:26.050Z,9.17
2018-06-09T09:58:54.205Z,10.53
2018-06-09T10:01:22.364Z,8.83
2018-06-09T10:09:38.242Z,7.33
2018-06-09T10:12:06.730Z,6.53
2018-06-09T10:14:34.889Z,7.20
2018-06-09T10:17:19.449Z,7.43
2018-06-09T10:19:47.621Z,6.93
2018-06-09T10:22:15.805Z,6.30
2018-06-09T10:24:43.957Z,6.03
2018-06-09T10:27:12.971Z,5.83
2018-06-09T10:29:42.279Z,6.10
2018-06-09T10:32:10.698Z,6.23
2018-06-09T10:34:40.051Z,8.07
2018-06-09T10:37:08.190Z,7.97
2018-06-09T10:39:36.366Z,8.37
2018-06-09T10:42:05.696Z,7.80
2018-06-09T10:44:33.874Z,7.53
2018-06-09T10:47:02.225Z,7.90
2018-06-09T10:49:30.331Z,7.90
2018-06-09T10:51:58.544Z,7.80
2018-06-09T10:54:26.697Z,6.90
2018-06-09T10:56:54.843Z,7.63
2018-06-09T10:59:26.534Z,7.90
2018-06-09T11:01:54.660Z,7.50
2018-06-09T11:04:22.787Z,8.00
2018-06-09T11:06:50.951Z,7.30
2018-06-09T11:09:19.097Z,7.20
2018-06-09T11:11:47.281Z,7.13
2018-06-09T11:14:15.637Z,6.90
2018-06-09T11:16:43.832Z,6.80
2018-06-09T11:19:12.021Z,7.50
2018-06-09T11:21:40.201Z,7.07
2018-06-09T11:24:09.230Z,6.83
2018-06-09T11:26:37.414Z,7.37
2018-06-09T11:29:05.585Z,7.47
2018-06-09T11:31:33.755Z,7.13
2018-06-09T11:34:01.971Z,7.87
2018-06-09T11:36:30.265Z,7.40
2018-06-09T11:38:58.437Z,7.50
2018-06-09T11:41:27.825Z,8.00
2018-06-09T11:43:56.856Z,7.10
2018-06-09T11:46:25.849Z,7.27
2018-06-09T11:48:53.997Z,6.80
2018-06-09T11:51:22.187Z,6.27
2018-06-09T11:53:50.381Z,6.47
2018-06-09T11:56:18.606Z,5.97
2018-06-09T11:58:46.777Z,6.00
2018-06-09T12:01:15.965Z,6.53
2018-06-09T12:03:44.130Z,7.33
2018-06-09T12:06:12.304Z,6.53
2018-06-09T12:08:40.465Z,7.03
2018-06-09T12:11:08.747Z,7.30
2018-06-09T12:13:36.885Z,6.97
2018-06-09T12:16:05.189Z,7.80
2018-06-09T12:18:33.387Z,7.07
2018-06-09T12:21:01.580Z,6.23
2018-06-09T12:23:30.896Z,5.70
2018-06-09T12:26:05.738Z,6.00
2018-06-09T12:28:33.953Z,5.63
2018-06-09T12:31:02.849Z,6.27
2018-06-09T12:33:31.734Z,6.93
2018-06-09T12:38:45.626Z,6.93
2018-06-09T12:41:19.372Z,6.87
2018-06-09T12:46:33.731Z,7.10
2018-06-09T12:49:03.737Z,7.77
2018-06-09T12:51:32.139Z,7.20
2018-06-09T12:54:19.033Z,6.90
2018-06-09T12:56:49.648Z,8.47
2018-06-09T13:01:55.942Z,7.37
2018-06-09T13:04:52.072Z,7.00
2018-06-09T13:07:43.863Z,7.60
2018-06-09T13:10:13.864Z,6.73
2018-06-09T13:12:47.920Z,7.83
2018-06-09T13:21:01.459Z,8.43
2018-06-09T13:23:48.733Z,9.63
2018-06-09T13:26:23.639Z,6.90
2018-06-09T13:34:59.162Z,8.37
2018-06-09T13:37:27.284Z,7.67
2018-06-09T13:39:55.940Z,6.97
2018-06-09T13:42:42.105Z,8.80
2018-06-09T13:45:28.281Z,8.93
2018-06-09T14:03:09.973Z,7.47
2018-06-09T14:16:51.036Z,6.93
2018-06-09T14:19:22.363Z,7.03
2018-06-09T14:21:52.396Z,7.60
2018-06-09T14:24:20.588Z,7.80
2018-06-09T15:31:58.671Z,8.30
2018-06-09T15:47:17.671Z,7.67
2018-06-09T15:49:58.814Z,7.23
2018-06-09T16:02:52.223Z,7.67
2018-06-09T16:11:15.692Z,8.20
2018-06-09T16:13:43.828Z,9.20
2018-06-09T16:16:11.998Z,8.00
2018-06-09T16:18:40.185Z,7.83
2018-06-09T16:21:08.370Z,8.53
2018-06-09T16:23:36.607Z,8.10
2018-06-09T16:26:04.927Z,8.67
2018-06-09T16:28:33.051Z,8.80
2018-06-09T16:31:01.185Z,7.00
2018-06-09T16:33:29.299Z,6.83
2018-06-09T16:35:57.408Z,7.50
2018-06-09T16:38:25.541Z,7.57
2018-06-09T16:40:53.820Z,6.87
2018-06-09T16:43:21.955Z,7.17
2018-06-09T16:45:50.076Z,6.57
2018-06-09T16:48:18.551Z,7.17
2018-06-09T16:50:46.691Z,6.73
2018-06-09T16:53:14.797Z,7.13
2018-06-09T16:55:42.970Z,7.77
2018-06-09T16:58:11.083Z,6.73
2018-06-09T17:00:39.219Z,7.43
2018-06-09T17:03:17.643Z,7.03
2018-06-09T17:05:45.776Z,7.20
2018-06-09T17:08:13.880Z,7.60
2018-06-09T17:10:42.040Z,9.80
2018-06-09T17:13:10.132Z,10.97
2018-06-09T17:15:38.255Z,7.87
2018-06-09T17:18:06.396Z,8.20
2018-06-09T17:20:34.516Z,8.10
2018-06-09T17:23:02.639Z,7.27
2018-06-09T17:25:30.772Z,7.77
2018-06-09T17:27:58.915Z,7.97
2018-06-09T17:30:27.047Z,7.53
2018-06-09T17:32:55.188Z,8.43
2018-06-09T17:35:23.296Z,7.90
2018-06-09T17:37:51.439Z,8.00
2018-06-09T17:40:19.588Z,8.20
2018-06-09T17:42:47.759Z,9.03
2018-06-09T17:45:15.915Z,8.17
2018-06-09T17:47:44.065Z,7.80
2018-06-09T17:50:12.208Z,8.30
2018-06-09T17:52:40.360Z,7.50
2018-06-09T17:55:08.515Z,8.30
2018-06-09T17:57:36.684Z,8.27
2018-06-09T18:00:04.999Z,8.30
2018-06-09T18:02:33.156Z,8.00
2018-06-09T18:05:01.300Z,8.37
2018-06-09T18:07:29.456Z,8.03
2018-06-09T18:09:57.605Z,8.60
2018-06-09T18:12:25.797Z,8.30
2018-06-09T18:14:53.948Z,8.63
2018-06-09T18:17:22.091Z,8.40
2018-06-09T18:19:50.244Z,8.90
2018-06-09T18:22:18.401Z,8.93
2018-06-09T18:24:46.541Z,9.17
2018-06-09T18:27:14.737Z,8.33
2018-06-09T18:29:42.861Z,8.10
2018-06-09T18:32:11.009Z,8.77
2018-06-09T18:34:39.148Z,8.37
2018-06-09T18:37:07.300Z,9.40
2018-06-09T18:39:35.448Z,8.40
2018-06-09T18:42:03.586Z,9.20
2018-06-09T18:44:31.688Z,9.57
2018-06-09T18:46:59.811Z,9.20
2018-06-09T18:49:27.924Z,9.40
2018-06-09T18:51:56.081Z,10.30
2018-06-09T18:54:24.214Z,9.17
2018-06-09T18:56:52.343Z,10.17
2018-06-09T18:59:20.486Z,10.03
2018-06-09T19:01:48.643Z,10.00
2018-06-09T19:04:16.776Z,10.60
2018-06-09T19:06:44.923Z,10.43
2018-06-09T19:09:13.079Z,9.80
2018-06-09T19:11:41.229Z,10.53
2018-06-09T19:14:09.379Z,10.77
2018-06-09T19:16:37.563Z,10.97
2018-06-09T19:19:05.732Z,10.83
2018-06-09T19:21:33.855Z,10.80
2018-06-09T19:24:01.980Z,11.07
2018-06-09T19:26:30.108Z,10.63
2018-06-09T19:28:58.257Z,12.37
2018-06-09T19:31:26.392Z,10.13
2018-06-09T19:33:54.531Z,10.90
2018-06-09T19:36:22.653Z,10.67
2018-06-09T19:38:50.810Z,11.17
2018-06-09T19:41:18.929Z,10.73
2018-06-09T19:43:47.092Z,10.87
2018-06-09T19:46:15.241Z,12.40
2018-06-09T19:48:43.387Z,12.10
2018-06-09T19:51:11.531Z,13.67
2018-06-09T19:53:39.677Z,12.27
2018-06-09T19:56:07.837Z,11.27
2018-06-09T19:58:35.980Z,11.87
2018-06-09T20:01:04.113Z,11.53
2018-06-09T20:03:32.255Z,12.20
2018-06-09T20:06:00.419Z,11.10
2018-06-09T20:08:28.554Z,11.27
2018-06-09T20:10:56.664Z,12.17
2018-06-09T20:13:24.808Z,12.33
2018-06-09T20:15:52.931Z,11.70
2018-06-09T20:18:21.064Z,12.30
2018-06-09T20:20:49.192Z,11.63
2018-06-09T20:23:17.332Z,13.20
2018-06-09T20:25:45.463Z,12.80
2018-06-09T20:28:13.615Z,13.53
2018-06-09T20:30:41.751Z,13.47
2018-06-09T20:33:09.933Z,13.20
2018-06-09T20:35:38.077Z,13.10
2018-06-09T20:38:06.215Z,14.00
2018-06-09T20:40:34.336Z,13.53
2018-06-09T20:43:02.479Z,13.67
2018-06-09T20:45:30.592Z,12.67
2018-06-09T20:47:58.736Z,12.67
2018-06-09T20:50:26.883Z,12.63
2018-06-09T20:52:55.033Z,13.10
2018-06-09T20:55:23.182Z,12.77
2018-06-09T20:57:51.329Z,12.77
2018-06-09T21:00:19.504Z,12.60
2018-06-09T21:02:47.645Z,13.17
2018-06-09T21:05:15.806Z,12.13
2018-06-09T21:07:43.919Z,12.73
2018-06-09T21:10:12.086Z,13.10
2018-06-09T21:12:40.229Z,12.30
2018-06-09T21:15:08.412Z,12.73
2018-06-09T21:17:36.564Z,13.20
2018-06-09T21:20:04.807Z,14.70
2018-06-09T21:22:32.895Z,14.43
2018-06-09T21:25:01.063Z,14.27
2018-06-09T21:27:33.504Z,12.53
2018-06-09T21:30:06.057Z,13.17
2018-06-09T21:34:41.339Z,12.97
2018-06-09T21:37:11.387Z,9.90
2018-06-09T21:39:44.967Z,9.93
2018-06-09T21:42:18.600Z,9.10
2018-06-09T21:44:48.183Z,10.70
2018-06-09T21:47:16.615Z,10.53
2018-06-09T21:49:44.768Z,10.10
2018-06-09T21:52:12.896Z,9.17
2018-06-09T21:54:41.031Z,8.20
2018-06-09T21:57:09.203Z,8.43
2018-06-09T21:59:37.360Z,8.23
2018-06-09T22:02:05.504Z,8.40
2018-06-09T22:04:33.664Z,8.23
2018-06-09T22:07:01.836Z,8.57
2018-06-09T22:09:29.988Z,7.70
2018-06-09T22:11:58.131Z,8.03
2018-06-09T22:14:26.308Z,8.60
2018-06-09T22:16:54.466Z,9.00
2018-06-09T22:19:22.608Z,9.80
2018-06-09T22:21:50.756Z,11.00
2018-06-09T22:24:18.924Z,11.17
2018-06-09T22:26:47.105Z,9.80
2018-06-09T22:29:15.249Z,10.20
2018-06-09T22:31:43.420Z,10.63
2018-06-09T22:34:11.580Z,8.77
2018-06-09T22:36:39.740Z,8.83
2018-06-09T22:39:07.983Z,8.10
2018-06-09T22:41:36.112Z,8.77
2018-06-09T22:44:04.239Z,8.30
2018-06-09T22:46:32.388Z,10.30
2018-06-09T22:49:00.533Z,11.20
2018-06-09T22:51:28.687Z,11.50
2018-06-09T22:53:56.832Z,10.97
2018-06-09T22:56:24.988Z,11.53
2018-06-09T22:58:53.125Z,11.13
2018-06-09T23:01:21.293Z,11.70
2018-06-09T23:03:49.458Z,11.13
2018-06-09T23:06:17.620Z,11.53
2018-06-09T23:08:45.744Z,9.30
2018-06-09T23:11:13.917Z,9.40
2018-06-09T23:13:42.085Z,10.80
2018-06-09T23:16:10.205Z,10.23
2018-06-09T23:18:38.340Z,10.13
2018-06-09T23:21:06.521Z,8.50
2018-06-09T23:23:34.656Z,9.10
2018-06-09T23:26:02.817Z,8.77
2018-06-09T23:28:30.953Z,9.40
2018-06-09T23:30:59.107Z,10.00
2018-06-09T23:33:27.245Z,10.13
2018-06-09T23:36:00.990Z,10.57
2018-06-09T23:41:38.954Z,10.00
2018-06-09T23:44:10.588Z,9.90
2018-06-09T23:47:01.262Z,10.47
2018-06-09T23:49:51.760Z,8.97
2018-06-09T23:55:24.732Z,10.50
2018-06-09T23:57:54.906Z,10.60
